sensor_id;sensor_type;location;lat;lon;timestamp;P1;durP1;ratioP1;P2;durP2;ratioP2
8702;SDS011;9002;42.708;23.186;2024-03-22T00:02:12;18.60;;;10.23;;
8702;SDS011;9002;42.708;23.186;2024-03-22T00:04:39;18.48;;;11.05;;
8702;SDS011;9002;42.708;23.186;2024-03-22T00:07:05;26.48;;;11.32;;
8702;SDS011;9002;42.708;23.186;2024-03-22T00:09:32;22.48;;;11.20;;
8702;SDS011;9002;42.708;23.186;2024-03-22T00:11:59;21.77;;;12.27;;
8702;SDS011;9002;42.708;23.186;2024-03-22T00:14:27;23.98;;;12.65;;
8702;SDS011;9002;42.708;23.186;2024-03-22T00:16:53;21.13;;;10.90;;
8702;SDS011;9002;42.708;23.186;2024-03-22T00:19:20;20.73;;;10.82;;
8702;SDS011;9002;42.708;23.186;2024-03-22T00:21:46;21.02;;;11.82;;
8702;SDS011;9002;42.708;23.186;2024-03-22T00:24:13;17.70;;;12.02;;
8702;SDS011;9002;42.708;23.186;2024-03-22T00:26:39;17.40;;;11.30;;
8702;SDS011;9002;42.708;23.186;2024-03-22T00:29:06;21.20;;;12.25;;
8702;SDS011;9002;42.708;23.186;2024-03-22T00:31:33;18.42;;;9.65;;
8702;SDS011;9002;42.708;23.186;2024-03-22T00:34:00;19.30;;;11.02;;
8702;SDS011;9002;42.708;23.186;2024-03-22T00:36:26;19.58;;;10.77;;
8702;SDS011;9002;42.708;23.186;2024-03-22T00:38:53;21.38;;;10.43;;
8702;SDS011;9002;42.708;23.186;2024-03-22T00:41:19;20.13;;;11.35;;
8702;SDS011;9002;42.708;23.186;2024-03-22T00:43:46;20.17;;;11.77;;
8702;SDS011;9002;42.708;23.186;2024-03-22T00:46:12;17.83;;;11.35;;
8702;SDS011;9002;42.708;23.186;2024-03-22T00:48:40;22.05;;;11.77;;
8702;SDS011;9002;42.708;23.186;2024-03-22T00:51:06;20.77;;;11.15;;
8702;SDS011;9002;42.708;23.186;2024-03-22T00:53:33;20.15;;;11.23;;
8702;SDS011;9002;42.708;23.186;2024-03-22T00:55:59;18.83;;;11.93;;
8702;SDS011;9002;42.708;23.186;2024-03-22T00:58:26;23.52;;;11.10;;
8702;SDS011;9002;42.708;23.186;2024-03-22T01:03:19;18.60;;;11.00;;
8702;SDS011;9002;42.708;23.186;2024-03-22T01:05:47;23.80;;;11.80;;
8702;SDS011;9002;42.708;23.186;2024-03-22T01:08:14;17.95;;;10.80;;
8702;SDS011;9002;42.708;23.186;2024-03-22T01:10:40;17.23;;;11.20;;
8702;SDS011;9002;42.708;23.186;2024-03-22T01:13:07;16.05;;;10.40;;
8702;SDS011;9002;42.708;23.186;2024-03-22T01:15:33;18.55;;;10.57;;
8702;SDS011;9002;42.708;23.186;2024-03-22T01:18:00;14.57;;;8.63;;
8702;SDS011;9002;42.708;23.186;2024-03-22T01:20:26;17.08;;;8.68;;
8702;SDS011;9002;42.708;23.186;2024-03-22T01:22:55;15.43;;;8.15;;
8702;SDS011;9002;42.708;23.186;2024-03-22T01:25:21;17.00;;;8.88;;
8702;SDS011;9002;42.708;23.186;2024-03-22T01:27:47;15.88;;;8.35;;
8702;SDS011;9002;42.708;23.186;2024-03-22T01:30:13;15.38;;;8.85;;
8702;SDS011;9002;42.708;23.186;2024-03-22T01:32:40;17.38;;;9.55;;
8702;SDS011;9002;42.708;23.186;2024-03-22T01:35:07;19.35;;;9.07;;
8702;SDS011;9002;42.708;23.186;2024-03-22T01:37:34;17.90;;;11.43;;
8702;SDS011;9002;42.708;23.186;2024-03-22T01:40:02;16.70;;;9.90;;
8702;SDS011;9002;42.708;23.186;2024-03-22T01:42:30;22.70;;;10.10;;
8702;SDS011;9002;42.708;23.186;2024-03-22T01:44:56;14.13;;;8.65;;
8702;SDS011;9002;42.708;23.186;2024-03-22T01:47:23;12.55;;;9.45;;
8702;SDS011;9002;42.708;23.186;2024-03-22T01:52:21;19.27;;;9.55;;
8702;SDS011;9002;42.708;23.186;2024-03-22T01:54:48;17.73;;;9.57;;
8702;SDS011;9002;42.708;23.186;2024-03-22T01:57:16;15.15;;;8.35;;
8702;SDS011;9002;42.708;23.186;2024-03-22T01:59:43;14.52;;;8.40;;
8702;SDS011;9002;42.708;23.186;2024-03-22T02:02:11;15.25;;;8.30;;
8702;SDS011;9002;42.708;23.186;2024-03-22T02:04:38;17.35;;;8.93;;
8702;SDS011;9002;42.708;23.186;2024-03-22T02:07:04;13.98;;;8.52;;
8702;SDS011;9002;42.708;23.186;2024-03-22T02:09:31;14.90;;;7.82;;
8702;SDS011;9002;42.708;23.186;2024-03-22T02:11:57;15.40;;;8.52;;
8702;SDS011;9002;42.708;23.186;2024-03-22T02:14:26;15.32;;;8.55;;
8702;SDS011;9002;42.708;23.186;2024-03-22T02:16:53;17.92;;;9.15;;
8702;SDS011;9002;42.708;23.186;2024-03-22T02:19:19;13.25;;;9.13;;
8702;SDS011;9002;42.708;23.186;2024-03-22T02:21:46;14.57;;;8.63;;
8702;SDS011;9002;42.708;23.186;2024-03-22T02:24:16;21.58;;;8.32;;
8702;SDS011;9002;42.708;23.186;2024-03-22T02:26:43;17.38;;;9.55;;
8702;SDS011;9002;42.708;23.186;2024-03-22T02:29:09;15.60;;;8.82;;
8702;SDS011;9002;42.708;23.186;2024-03-22T02:31:36;15.27;;;9.18;;
8702;SDS011;9002;42.708;23.186;2024-03-22T02:34:02;19.63;;;10.70;;
8702;SDS011;9002;42.708;23.186;2024-03-22T02:36:29;18.55;;;12.50;;
8702;SDS011;9002;42.708;23.186;2024-03-22T02:38:55;18.02;;;10.80;;
8702;SDS011;9002;42.708;23.186;2024-03-22T02:41:24;20.00;;;11.15;;
8702;SDS011;9002;42.708;23.186;2024-03-22T02:43:49;19.92;;;11.27;;
8702;SDS011;9002;42.708;23.186;2024-03-22T02:46:16;21.73;;;12.13;;
8702;SDS011;9002;42.708;23.186;2024-03-22T02:48:42;18.02;;;11.02;;
8702;SDS011;9002;42.708;23.186;2024-03-22T02:51:10;22.05;;;12.32;;
8702;SDS011;9002;42.708;23.186;2024-03-22T02:53:36;20.13;;;11.60;;
8702;SDS011;9002;42.708;23.186;2024-03-22T03:30:42;20.67;;;11.25;;
8702;SDS011;9002;42.708;23.186;2024-03-22T03:33:09;17.38;;;9.55;;
8702;SDS011;9002;42.708;23.186;2024-03-22T03:35:35;18.50;;;9.77;;
8702;SDS011;9002;42.708;23.186;2024-03-22T03:38:02;14.23;;;8.73;;
8702;SDS011;9002;42.708;23.186;2024-03-22T03:40:28;16.20;;;8.23;;
8702;SDS011;9002;42.708;23.186;2024-03-22T03:42:55;16.55;;;8.40;;
8702;SDS011;9002;42.708;23.186;2024-03-22T03:45:21;17.05;;;9.20;;
8702;SDS011;9002;42.708;23.186;2024-03-22T03:47:49;12.13;;;7.50;;
8702;SDS011;9002;42.708;23.186;2024-03-22T03:50:15;15.73;;;8.20;;
8702;SDS011;9002;42.708;23.186;2024-03-22T03:52:42;15.63;;;7.72;;
8702;SDS011;9002;42.708;23.186;2024-03-22T03:55:08;14.50;;;7.68;;
8702;SDS011;9002;42.708;23.186;2024-03-22T03:57:35;12.43;;;6.03;;
8702;SDS011;9002;42.708;23.186;2024-03-22T04:00:01;11.60;;;6.53;;
8702;SDS011;9002;42.708;23.186;2024-03-22T04:02:28;11.68;;;7.97;;
8702;SDS011;9002;42.708;23.186;2024-03-22T04:04:56;13.85;;;8.65;;
8702;SDS011;9002;42.708;23.186;2024-03-22T04:07:24;14.48;;;8.63;;
8702;SDS011;9002;42.708;23.186;2024-03-22T04:09:50;13.00;;;8.00;;
8702;SDS011;9002;42.708;23.186;2024-03-22T04:12:17;16.20;;;8.65;;
8702;SDS011;9002;42.708;23.186;2024-03-22T04:14:43;14.98;;;6.80;;
8702;SDS011;9002;42.708;23.186;2024-03-22T04:17:10;14.35;;;7.88;;
8702;SDS011;9002;42.708;23.186;2024-03-22T04:19:36;17.92;;;8.27;;
8702;SDS011;9002;42.708;23.186;2024-03-22T04:22:05;14.55;;;8.23;;
8702;SDS011;9002;42.708;23.186;2024-03-22T04:24:30;13.23;;;7.80;;
8702;SDS011;9002;42.708;23.186;2024-03-22T04:26:58;15.40;;;8.20;;
8702;SDS011;9002;42.708;23.186;2024-03-22T04:29:23;11.80;;;7.15;;
8702;SDS011;9002;42.708;23.186;2024-03-22T04:34:16;15.35;;;7.32;;
8702;SDS011;9002;42.708;23.186;2024-03-22T04:36:43;16.67;;;8.98;;
8702;SDS011;9002;42.708;23.186;2024-03-22T04:39:11;14.45;;;7.45;;
8702;SDS011;9002;42.708;23.186;2024-03-22T04:41:39;15.30;;;8.20;;
8702;SDS011;9002;42.708;23.186;2024-03-22T04:44:06;15.25;;;7.90;;
8702;SDS011;9002;42.708;23.186;2024-03-22T04:46:33;17.10;;;10.18;;
8702;SDS011;9002;42.708;23.186;2024-03-22T04:48:59;15.55;;;8.85;;
8702;SDS011;9002;42.708;23.186;2024-03-22T04:51:26;15.68;;;8.20;;
8702;SDS011;9002;42.708;23.186;2024-03-22T04:53:52;12.95;;;8.30;;
8702;SDS011;9002;42.708;23.186;2024-03-22T04:56:20;14.98;;;8.18;;
8702;SDS011;9002;42.708;23.186;2024-03-22T04:58:46;14.23;;;7.35;;
8702;SDS011;9002;42.708;23.186;2024-03-22T05:01:13;14.90;;;6.75;;
8702;SDS011;9002;42.708;23.186;2024-03-22T05:03:39;10.70;;;6.50;;
8702;SDS011;9002;42.708;23.186;2024-03-22T05:06:06;10.88;;;6.05;;
8702;SDS011;9002;42.708;23.186;2024-03-22T05:08:32;10.98;;;7.82;;
8702;SDS011;9002;42.708;23.186;2024-03-22T05:10:59;11.10;;;6.32;;
8702;SDS011;9002;42.708;23.186;2024-03-22T05:13:27;9.35;;;5.68;;
8702;SDS011;9002;42.708;23.186;2024-03-22T05:15:54;13.98;;;5.95;;
8702;SDS011;9002;42.708;23.186;2024-03-22T05:18:20;10.82;;;6.43;;
8702;SDS011;9002;42.708;23.186;2024-03-22T05:20:46;12.27;;;7.28;;
8702;SDS011;9002;42.708;23.186;2024-03-22T05:23:12;14.75;;;6.82;;
8702;SDS011;9002;42.708;23.186;2024-03-22T05:25:41;12.57;;;8.98;;
8702;SDS011;9002;42.708;23.186;2024-03-22T05:28:07;14.30;;;9.05;;
8702;SDS011;9002;42.708;23.186;2024-03-22T05:30:35;22.65;;;11.93;;
8702;SDS011;9002;42.708;23.186;2024-03-22T05:33:01;19.33;;;10.23;;
8702;SDS011;9002;42.708;23.186;2024-03-22T05:35:28;18.95;;;10.55;;
8702;SDS011;9002;42.708;23.186;2024-03-22T05:37:54;19.38;;;10.88;;
8702;SDS011;9002;42.708;23.186;2024-03-22T05:40:21;21.55;;;10.35;;
8702;SDS011;9002;42.708;23.186;2024-03-22T05:42:47;17.05;;;10.85;;
8702;SDS011;9002;42.708;23.186;2024-03-22T05:45:14;14.23;;;9.57;;
8702;SDS011;9002;42.708;23.186;2024-03-22T05:47:41;21.88;;;10.35;;
8702;SDS011;9002;42.708;23.186;2024-03-22T05:50:08;23.70;;;10.93;;
8702;SDS011;9002;42.708;23.186;2024-03-22T05:52:34;18.80;;;10.48;;
8702;SDS011;9002;42.708;23.186;2024-03-22T05:55:01;22.33;;;11.60;;
8702;SDS011;9002;42.708;23.186;2024-03-22T05:57:27;21.30;;;10.65;;
8702;SDS011;9002;42.708;23.186;2024-03-22T05:59:54;21.95;;;11.00;;
8702;SDS011;9002;42.708;23.186;2024-03-22T06:02:20;19.48;;;13.13;;
8702;SDS011;9002;42.708;23.186;2024-03-22T06:04:49;18.17;;;10.77;;
8702;SDS011;9002;42.708;23.186;2024-03-22T06:07:15;24.65;;;11.18;;
8702;SDS011;9002;42.708;23.186;2024-03-22T06:09:43;22.20;;;10.45;;
8702;SDS011;9002;42.708;23.186;2024-03-22T09:25:16;3.95;;;2.25;;
8702;SDS011;9002;42.708;23.186;2024-03-22T09:27:43;4.32;;;2.45;;
8702;SDS011;9002;42.708;23.186;2024-03-22T09:30:10;5.88;;;2.67;;
8702;SDS011;9002;42.708;23.186;2024-03-22T09:32:37;5.10;;;2.90;;
8702;SDS011;9002;42.708;23.186;2024-03-22T09:35:04;6.53;;;3.55;;
8702;SDS011;9002;42.708;23.186;2024-03-22T09:37:39;3.63;;;2.17;;
8702;SDS011;9002;42.708;23.186;2024-03-22T09:40:06;6.32;;;3.55;;
8702;SDS011;9002;42.708;23.186;2024-03-22T09:42:35;3.72;;;2.33;;
8702;SDS011;9002;42.708;23.186;2024-03-22T09:45:04;5.00;;;2.33;;
8702;SDS011;9002;42.708;23.186;2024-03-22T09:47:35;4.50;;;3.83;;
8702;SDS011;9002;42.708;23.186;2024-03-22T09:50:02;5.30;;;2.60;;
8702;SDS011;9002;42.708;23.186;2024-03-22T09:52:32;4.57;;;2.75;;
8702;SDS011;9002;42.708;23.186;2024-03-22T09:54:59;4.65;;;2.67;;
8702;SDS011;9002;42.708;23.186;2024-03-22T09:57:28;4.00;;;2.95;;
8702;SDS011;9002;42.708;23.186;2024-03-22T09:59:57;4.25;;;2.45;;
8702;SDS011;9002;42.708;23.186;2024-03-22T10:02:25;4.55;;;2.47;;
8702;SDS011;9002;42.708;23.186;2024-03-22T10:04:51;5.05;;;3.33;;
8702;SDS011;9002;42.708;23.186;2024-03-22T10:07:18;4.53;;;2.97;;
8702;SDS011;9002;42.708;23.186;2024-03-22T10:09:44;4.18;;;2.22;;
8702;SDS011;9002;42.708;23.186;2024-03-22T10:12:11;4.30;;;2.70;;
8702;SDS011;9002;42.708;23.186;2024-03-22T10:14:37;3.97;;;2.08;;
8702;SDS011;9002;42.708;23.186;2024-03-22T10:17:08;3.95;;;2.60;;
8702;SDS011;9002;42.708;23.186;2024-03-22T10:19:35;3.80;;;2.72;;
8702;SDS011;9002;42.708;23.186;2024-03-22T10:22:02;6.30;;;2.88;;
8702;SDS011;9002;42.708;23.186;2024-03-22T10:24:29;5.28;;;3.25;;
8702;SDS011;9002;42.708;23.186;2024-03-22T10:26:57;6.60;;;3.20;;
8702;SDS011;9002;42.708;23.186;2024-03-22T10:29:23;4.07;;;2.20;;
8702;SDS011;9002;42.708;23.186;2024-03-22T10:31:50;3.88;;;2.63;;
8702;SDS011;9002;42.708;23.186;2024-03-22T10:34:21;5.03;;;2.47;;
8702;SDS011;9002;42.708;23.186;2024-03-22T10:36:50;3.95;;;2.55;;
8702;SDS011;9002;42.708;23.186;2024-03-22T10:39:17;4.82;;;3.17;;
8702;SDS011;9002;42.708;23.186;2024-03-22T10:41:45;5.10;;;2.45;;
8702;SDS011;9002;42.708;23.186;2024-03-22T10:44:11;4.43;;;2.70;;
8702;SDS011;9002;42.708;23.186;2024-03-22T10:46:38;5.68;;;3.03;;
8702;SDS011;9002;42.708;23.186;2024-03-22T10:49:09;4.28;;;3.35;;
8702;SDS011;9002;42.708;23.186;2024-03-22T10:51:41;5.43;;;2.80;;
8702;SDS011;9002;42.708;23.186;2024-03-22T10:54:12;5.95;;;2.67;;
8702;SDS011;9002;42.708;23.186;2024-03-22T10:56:43;5.15;;;2.85;;
8702;SDS011;9002;42.708;23.186;2024-03-22T11:49:04;4.20;;;2.30;;
8702;SDS011;9002;42.708;23.186;2024-03-22T11:51:31;3.88;;;2.30;;
8702;SDS011;9002;42.708;23.186;2024-03-22T11:53:57;5.15;;;2.80;;
8702;SDS011;9002;42.708;23.186;2024-03-22T11:56:24;5.55;;;2.72;;
8702;SDS011;9002;42.708;23.186;2024-03-22T11:58:57;3.78;;;2.05;;
8702;SDS011;9002;42.708;23.186;2024-03-22T12:01:24;6.03;;;2.05;;
8702;SDS011;9002;42.708;23.186;2024-03-22T12:03:51;2.80;;;2.22;;
8702;SDS011;9002;42.708;23.186;2024-03-22T12:06:20;4.70;;;2.40;;
8702;SDS011;9002;42.708;23.186;2024-03-22T12:08:46;4.68;;;2.47;;
8702;SDS011;9002;42.708;23.186;2024-03-22T12:11:13;3.40;;;2.35;;
8702;SDS011;9002;42.708;23.186;2024-03-22T12:13:39;3.95;;;2.55;;
8702;SDS011;9002;42.708;23.186;2024-03-22T12:16:06;4.18;;;2.72;;
8702;SDS011;9002;42.708;23.186;2024-03-22T12:18:32;4.70;;;2.58;;
8702;SDS011;9002;42.708;23.186;2024-03-22T12:21:00;12.20;;;3.22;;
8702;SDS011;9002;42.708;23.186;2024-03-22T12:25:54;5.53;;;3.25;;
8702;SDS011;9002;42.708;23.186;2024-03-22T12:28:21;4.65;;;2.33;;
8702;SDS011;9002;42.708;23.186;2024-03-22T12:30:48;5.07;;;2.45;;
8702;SDS011;9002;42.708;23.186;2024-03-22T12:33:15;4.43;;;2.45;;
8702;SDS011;9002;42.708;23.186;2024-03-22T12:35:42;4.45;;;3.08;;
8702;SDS011;9002;42.708;23.186;2024-03-22T12:38:09;6.72;;;2.70;;
8702;SDS011;9002;42.708;23.186;2024-03-22T12:40:39;4.57;;;2.33;;
8702;SDS011;9002;42.708;23.186;2024-03-22T12:43:07;3.92;;;2.22;;
8702;SDS011;9002;42.708;23.186;2024-03-22T12:45:35;4.25;;;2.80;;
8702;SDS011;9002;42.708;23.186;2024-03-22T12:48:02;3.70;;;2.35;;
8702;SDS011;9002;42.708;23.186;2024-03-22T12:50:29;2.67;;;1.85;;
8702;SDS011;9002;42.708;23.186;2024-03-22T12:52:56;5.43;;;3.05;;
8702;SDS011;9002;42.708;23.186;2024-03-22T12:55:22;3.85;;;2.85;;
8702;SDS011;9002;42.708;23.186;2024-03-22T12:57:52;9.68;;;2.17;;
8702;SDS011;9002;42.708;23.186;2024-03-22T13:00:18;5.80;;;2.78;;
8702;SDS011;9002;42.708;23.186;2024-03-22T13:02:46;5.25;;;3.13;;
8702;SDS011;9002;42.708;23.186;2024-03-22T13:05:12;4.47;;;2.88;;
8702;SDS011;9002;42.708;23.186;2024-03-22T13:07:40;4.97;;;3.15;;
8702;SDS011;9002;42.708;23.186;2024-03-22T13:10:07;4.75;;;2.53;;
8702;SDS011;9002;42.708;23.186;2024-03-22T13:12:35;6.57;;;2.22;;
8702;SDS011;9002;42.708;23.186;2024-03-22T13:17:31;3.15;;;2.65;;
8702;SDS011;9002;42.708;23.186;2024-03-22T13:19:57;5.07;;;2.45;;
8702;SDS011;9002;42.708;23.186;2024-03-22T13:22:25;4.03;;;2.60;;
8702;SDS011;9002;42.708;23.186;2024-03-22T13:24:51;3.40;;;2.17;;
8702;SDS011;9002;42.708;23.186;2024-03-22T13:27:18;4.25;;;3.17;;
8702;SDS011;9002;42.708;23.186;2024-03-22T13:29:47;4.45;;;2.20;;
8702;SDS011;9002;42.708;23.186;2024-03-22T13:32:16;4.40;;;2.33;;
8702;SDS011;9002;42.708;23.186;2024-03-22T13:34:42;4.18;;;2.95;;
8702;SDS011;9002;42.708;23.186;2024-03-22T13:37:09;5.75;;;3.15;;
8702;SDS011;9002;42.708;23.186;2024-03-22T13:39:35;4.63;;;2.08;;
8702;SDS011;9002;42.708;23.186;2024-03-22T13:42:02;4.63;;;2.85;;
8702;SDS011;9002;42.708;23.186;2024-03-22T13:44:28;4.47;;;2.55;;
8702;SDS011;9002;42.708;23.186;2024-03-22T13:46:58;4.00;;;3.17;;
8702;SDS011;9002;42.708;23.186;2024-03-22T13:49:25;4.05;;;2.50;;
8702;SDS011;9002;42.708;23.186;2024-03-22T13:51:53;4.20;;;2.95;;
8702;SDS011;9002;42.708;23.186;2024-03-22T13:54:19;4.35;;;2.65;;
8702;SDS011;9002;42.708;23.186;2024-03-22T13:56:46;4.55;;;2.83;;
8702;SDS011;9002;42.708;23.186;2024-03-22T13:59:12;3.38;;;2.40;;
8702;SDS011;9002;42.708;23.186;2024-03-22T14:01:41;4.20;;;2.35;;
8702;SDS011;9002;42.708;23.186;2024-03-22T14:04:10;6.10;;;4.72;;
8702;SDS011;9002;42.708;23.186;2024-03-22T14:06:39;5.07;;;2.80;;
8702;SDS011;9002;42.708;23.186;2024-03-22T14:09:04;4.10;;;2.55;;
8702;SDS011;9002;42.708;23.186;2024-03-22T14:11:35;5.50;;;3.65;;
8702;SDS011;9002;42.708;23.186;2024-03-22T14:14:02;6.13;;;3.53;;
8702;SDS011;9002;42.708;23.186;2024-03-22T14:16:44;3.60;;;2.90;;
8702;SDS011;9002;42.708;23.186;2024-03-22T14:19:10;4.78;;;3.33;;
8702;SDS011;9002;42.708;23.186;2024-03-22T14:21:38;6.22;;;4.40;;
8702;SDS011;9002;42.708;23.186;2024-03-22T14:24:04;4.40;;;3.33;;
8702;SDS011;9002;42.708;23.186;2024-03-22T14:26:32;4.60;;;2.60;;
8702;SDS011;9002;42.708;23.186;2024-03-22T14:28:58;4.72;;;3.00;;
8702;SDS011;9002;42.708;23.186;2024-03-22T14:31:25;2.85;;;2.05;;
8702;SDS011;9002;42.708;23.186;2024-03-22T14:33:51;4.25;;;2.50;;
8702;SDS011;9002;42.708;23.186;2024-03-22T14:36:18;3.40;;;2.45;;
8702;SDS011;9002;42.708;23.186;2024-03-22T14:41:12;4.38;;;2.35;;
8702;SDS011;9002;42.708;23.186;2024-03-22T14:43:38;5.05;;;3.00;;
8702;SDS011;9002;42.708;23.186;2024-03-22T14:46:05;5.47;;;2.83;;
8702;SDS011;9002;42.708;23.186;2024-03-22T14:48:32;4.10;;;2.85;;
8702;SDS011;9002;42.708;23.186;2024-03-22T14:50:59;5.03;;;2.75;;
8702;SDS011;9002;42.708;23.186;2024-03-22T14:53:25;4.47;;;2.45;;
8702;SDS011;9002;42.708;23.186;2024-03-22T14:55:54;4.95;;;3.03;;
8702;SDS011;9002;42.708;23.186;2024-03-22T14:58:23;11.02;;;4.45;;
8702;SDS011;9002;42.708;23.186;2024-03-22T15:00:54;4.82;;;3.78;;
8702;SDS011;9002;42.708;23.186;2024-03-22T15:03:20;3.80;;;3.25;;
8702;SDS011;9002;42.708;23.186;2024-03-22T15:05:49;4.80;;;2.88;;
8702;SDS011;9002;42.708;23.186;2024-03-22T15:08:15;4.05;;;2.88;;
8702;SDS011;9002;42.708;23.186;2024-03-22T15:10:42;6.78;;;3.75;;
8702;SDS011;9002;42.708;23.186;2024-03-22T15:15:38;5.20;;;2.85;;
8702;SDS011;9002;42.708;23.186;2024-03-22T15:18:04;4.30;;;2.70;;
8702;SDS011;9002;42.708;23.186;2024-03-22T15:20:31;3.95;;;2.83;;
8702;SDS011;9002;42.708;23.186;2024-03-22T15:22:58;3.67;;;2.53;;
8702;SDS011;9002;42.708;23.186;2024-03-22T15:25:25;6.00;;;3.55;;
8702;SDS011;9002;42.708;23.186;2024-03-22T15:27:51;6.15;;;2.90;;
8702;SDS011;9002;42.708;23.186;2024-03-22T15:30:19;5.18;;;3.20;;
8702;SDS011;9002;42.708;23.186;2024-03-22T15:32:45;5.55;;;3.67;;
8702;SDS011;9002;42.708;23.186;2024-03-22T15:35:12;5.22;;;3.08;;
8702;SDS011;9002;42.708;23.186;2024-03-22T15:37:38;5.45;;;3.25;;
8702;SDS011;9002;42.708;23.186;2024-03-22T15:40:06;4.70;;;2.92;;
8702;SDS011;9002;42.708;23.186;2024-03-22T15:42:34;5.13;;;2.83;;
8702;SDS011;9002;42.708;23.186;2024-03-22T15:45:01;4.30;;;2.45;;
8702;SDS011;9002;42.708;23.186;2024-03-22T15:47:31;4.88;;;2.65;;
8702;SDS011;9002;42.708;23.186;2024-03-22T15:50:02;6.70;;;2.97;;
8702;SDS011;9002;42.708;23.186;2024-03-22T15:52:30;4.22;;;2.85;;
8702;SDS011;9002;42.708;23.186;2024-03-22T15:54:58;4.28;;;2.17;;
8702;SDS011;9002;42.708;23.186;2024-03-22T15:57:24;8.30;;;3.25;;
8702;SDS011;9002;42.708;23.186;2024-03-22T15:59:52;6.30;;;3.67;;
8702;SDS011;9002;42.708;23.186;2024-03-22T16:02:18;4.50;;;2.47;;
8702;SDS011;9002;42.708;23.186;2024-03-22T16:04:47;3.83;;;2.53;;
8702;SDS011;9002;42.708;23.186;2024-03-22T16:07:14;5.55;;;2.47;;
8702;SDS011;9002;42.708;23.186;2024-03-22T16:09:40;5.57;;;2.58;;
8702;SDS011;9002;42.708;23.186;2024-03-22T16:12:06;4.75;;;3.17;;
8702;SDS011;9002;42.708;23.186;2024-03-22T16:14:34;5.05;;;2.75;;
8702;SDS011;9002;42.708;23.186;2024-03-22T16:17:00;5.05;;;2.88;;
8702;SDS011;9002;42.708;23.186;2024-03-22T16:19:27;5.88;;;3.22;;
8702;SDS011;9002;42.708;23.186;2024-03-22T16:21:55;4.72;;;3.15;;
8702;SDS011;9002;42.708;23.186;2024-03-22T16:24:22;7.13;;;3.75;;
8702;SDS011;9002;42.708;23.186;2024-03-22T16:26:48;6.70;;;2.75;;
8702;SDS011;9002;42.708;23.186;2024-03-22T16:29:15;6.47;;;2.60;;
8702;SDS011;9002;42.708;23.186;2024-03-22T16:31:41;4.85;;;2.50;;
8702;SDS011;9002;42.708;23.186;2024-03-22T16:34:08;5.78;;;2.70;;
8702;SDS011;9002;42.708;23.186;2024-03-22T16:36:34;9.18;;;3.25;;
8702;SDS011;9002;42.708;23.186;2024-03-22T16:39:03;6.57;;;2.97;;
8702;SDS011;9002;42.708;23.186;2024-03-22T16:41:29;5.95;;;3.30;;
8702;SDS011;9002;42.708;23.186;2024-03-22T16:43:56;7.80;;;3.83;;
8702;SDS011;9002;42.708;23.186;2024-03-22T16:46:22;5.10;;;3.25;;
8702;SDS011;9002;42.708;23.186;2024-03-22T16:48:50;5.70;;;3.47;;
8702;SDS011;9002;42.708;23.186;2024-03-22T16:51:16;7.95;;;3.25;;
8702;SDS011;9002;42.708;23.186;2024-03-22T16:53:43;3.90;;;2.38;;
8702;SDS011;9002;42.708;23.186;2024-03-22T16:56:10;6.15;;;3.05;;
8702;SDS011;9002;42.708;23.186;2024-03-22T16:58:37;5.55;;;3.53;;
8702;SDS011;9002;42.708;23.186;2024-03-22T17:01:03;3.72;;;2.20;;
8702;SDS011;9002;42.708;23.186;2024-03-22T17:03:31;5.15;;;2.95;;
8702;SDS011;9002;42.708;23.186;2024-03-22T17:05:56;5.53;;;2.70;;
8702;SDS011;9002;42.708;23.186;2024-03-22T17:08:23;5.30;;;2.85;;
8702;SDS011;9002;42.708;23.186;2024-03-22T17:10:49;6.53;;;3.83;;
8702;SDS011;9002;42.708;23.186;2024-03-22T17:13:22;6.20;;;4.13;;
8702;SDS011;9002;42.708;23.186;2024-03-22T17:15:48;9.10;;;4.13;;
8702;SDS011;9002;42.708;23.186;2024-03-22T17:18:18;5.25;;;3.35;;
8702;SDS011;9002;42.708;23.186;2024-03-22T17:23:12;5.53;;;3.80;;
8702;SDS011;9002;42.708;23.186;2024-03-22T17:25:38;5.82;;;3.75;;
8702;SDS011;9002;42.708;23.186;2024-03-22T17:28:05;7.38;;;3.75;;
8702;SDS011;9002;42.708;23.186;2024-03-22T17:30:33;6.45;;;4.32;;
8702;SDS011;9002;42.708;23.186;2024-03-22T17:33:01;5.82;;;3.55;;
8702;SDS011;9002;42.708;23.186;2024-03-22T17:35:27;8.15;;;5.15;;
8702;SDS011;9002;42.708;23.186;2024-03-22T17:37:54;8.75;;;4.85;;
8702;SDS011;9002;42.708;23.186;2024-03-22T17:40:21;8.95;;;5.30;;
8702;SDS011;9002;42.708;23.186;2024-03-22T17:42:48;9.55;;;5.43;;
8702;SDS011;9002;42.708;23.186;2024-03-22T17:45:14;12.00;;;5.35;;
8702;SDS011;9002;42.708;23.186;2024-03-22T17:47:42;7.78;;;5.40;;
8702;SDS011;9002;42.708;23.186;2024-03-22T17:50:08;9.10;;;6.13;;
8702;SDS011;9002;42.708;23.186;2024-03-22T17:52:35;8.25;;;4.93;;
8702;SDS011;9002;42.708;23.186;2024-03-22T17:55:01;8.77;;;5.13;;
8702;SDS011;9002;42.708;23.186;2024-03-22T17:57:28;8.90;;;4.93;;
8702;SDS011;9002;42.708;23.186;2024-03-22T17:59:56;14.18;;;7.32;;
8702;SDS011;9002;42.708;23.186;2024-03-22T18:02:23;9.02;;;5.35;;
8702;SDS011;9002;42.708;23.186;2024-03-22T18:04:50;7.18;;;4.60;;
8702;SDS011;9002;42.708;23.186;2024-03-22T18:07:17;7.63;;;4.60;;
8702;SDS011;9002;42.708;23.186;2024-03-22T18:09:43;8.75;;;5.00;;
8702;SDS011;9002;42.708;23.186;2024-03-22T18:12:12;7.63;;;4.60;;
8702;SDS011;9002;42.708;23.186;2024-03-22T18:14:37;9.68;;;4.18;;
8702;SDS011;9002;42.708;23.186;2024-03-22T18:17:04;11.60;;;4.43;;
8702;SDS011;9002;42.708;23.186;2024-03-22T18:19:34;9.50;;;4.85;;
8702;SDS011;9002;42.708;23.186;2024-03-22T18:22:02;9.98;;;6.22;;
8702;SDS011;9002;42.708;23.186;2024-03-22T18:24:29;8.07;;;4.32;;
8702;SDS011;9002;42.708;23.186;2024-03-22T18:26:56;9.93;;;5.38;;
8702;SDS011;9002;42.708;23.186;2024-03-22T18:29:29;8.60;;;5.53;;
8702;SDS011;9002;42.708;23.186;2024-03-22T18:31:56;11.68;;;6.55;;
8702;SDS011;9002;42.708;23.186;2024-03-22T18:34:22;10.48;;;6.05;;
8702;SDS011;9002;42.708;23.186;2024-03-22T18:36:49;8.15;;;4.05;;
8702;SDS011;9002;42.708;23.186;2024-03-22T18:39:21;9.50;;;4.88;;
8702;SDS011;9002;42.708;23.186;2024-03-22T18:41:53;7.18;;;4.10;;
8702;SDS011;9002;42.708;23.186;2024-03-22T18:44:19;7.00;;;3.95;;
8702;SDS011;9002;42.708;23.186;2024-03-22T18:46:46;7.00;;;3.50;;
8702;SDS011;9002;42.708;23.186;2024-03-22T18:49:12;6.15;;;3.33;;
8702;SDS011;9002;42.708;23.186;2024-03-22T18:51:39;11.88;;;7.20;;
8702;SDS011;9002;42.708;23.186;2024-03-22T18:54:05;8.80;;;4.78;;
8702;SDS011;9002;42.708;23.186;2024-03-22T18:56:34;8.77;;;4.75;;
8702;SDS011;9002;42.708;23.186;2024-03-22T18:59:00;7.35;;;4.70;;
8702;SDS011;9002;42.708;23.186;2024-03-22T19:01:27;10.90;;;4.30;;
8702;SDS011;9002;42.708;23.186;2024-03-22T19:03:53;7.75;;;3.47;;
8702;SDS011;9002;42.708;23.186;2024-03-22T19:06:20;8.43;;;3.67;;
8702;SDS011;9002;42.708;23.186;2024-03-22T19:08:46;7.57;;;4.05;;
8702;SDS011;9002;42.708;23.186;2024-03-22T19:11:13;9.30;;;4.10;;
8702;SDS011;9002;42.708;23.186;2024-03-22T19:13:40;8.30;;;4.10;;
8702;SDS011;9002;42.708;23.186;2024-03-22T19:16:07;6.68;;;3.63;;
8702;SDS011;9002;42.708;23.186;2024-03-22T19:18:33;7.15;;;3.97;;
8702;SDS011;9002;42.708;23.186;2024-03-22T19:21:00;5.75;;;3.78;;
8702;SDS011;9002;42.708;23.186;2024-03-22T19:23:26;6.45;;;3.90;;
8702;SDS011;9002;42.708;23.186;2024-03-22T19:25:53;9.40;;;4.00;;
8702;SDS011;9002;42.708;23.186;2024-03-22T19:28:18;8.43;;;3.92;;
8702;SDS011;9002;42.708;23.186;2024-03-22T19:30:50;8.18;;;4.13;;
8702;SDS011;9002;42.708;23.186;2024-03-22T19:33:16;7.40;;;3.53;;
8702;SDS011;9002;42.708;23.186;2024-03-22T19:35:44;8.48;;;4.93;;
8702;SDS011;9002;42.708;23.186;2024-03-22T19:38:10;6.13;;;3.58;;
8702;SDS011;9002;42.708;23.186;2024-03-22T19:40:37;8.30;;;4.53;;
8702;SDS011;9002;42.708;23.186;2024-03-22T19:43:03;9.93;;;5.07;;
8702;SDS011;9002;42.708;23.186;2024-03-22T19:45:30;8.20;;;3.83;;
8702;SDS011;9002;42.708;23.186;2024-03-22T19:47:58;8.85;;;5.20;;
8702;SDS011;9002;42.708;23.186;2024-03-22T19:50:25;12.88;;;4.72;;